Time;durP1;ratioP1;P1;durP2;ratioP2;P2;SDS_P1;SDS_P2;PMS_P1;PMS_P2;Temp;Humidity;BMP_temperature;BMP_pressure;BME280_temperature;BME280_humidity;BME280_pressure;Samples;Min_cycle;Max_cycle;Signal;HPM_P1;HPM_P2
2024/03/20 00:00:44;;;;;;;10.32;5.53;;;13.20;99.90;;;;;;5052995;28;20037;-92
2024/03/20 00:03:09;;;;;;;14.73;5.90;;;12.70;99.90;;;;;;5053758;28;20058;-92
2024/03/20 00:05:35;;;;;;;10.80;5.35;;;12.50;99.90;;;;;;5053521;28;20045;-93
2024/03/20 00:08:01;;;;;;;13.25;5.20;;;12.50;99.90;;;;;;5056566;28;20032;-92
2024/03/20 00:10:27;;;;;;;11.27;5.45;;;12.90;99.90;;;;;;5053778;28;20018;-92
2024/03/20 00:12:53;;;;;;;14.18;5.80;;;13.30;99.90;;;;;;5053644;28;20028;-93
2024/03/20 00:15:19;;;;;;;13.57;5.30;;;12.40;99.90;;;;;;5053628;28;20456;-94
2024/03/20 00:17:47;;;;;;;12.40;6.10;;;12.40;99.90;;;;;;5053753;28;20073;-92
2024/03/20 00:20:18;;;;;;;10.48;5.75;;;12.70;99.90;;;;;;5059438;28;20032;-92
2024/03/20 00:22:59;;;;;;;10.82;5.85;;;13.60;99.90;;;;;;5053420;28;20029;-92
2024/03/20 00:25:33;;;;;;;14.80;5.90;;;13.50;99.90;;;;;;5053208;28;20021;-92
2024/03/20 00:27:58;;;;;;;15.10;6.03;;;12.40;99.90;;;;;;5053597;28;20028;-92
2024/03/20 00:30:36;;;;;;;8.50;5.82;;;13.30;99.90;;;;;;5052783;28;20167;-93
2024/03/20 00:33:03;;;;;;;11.43;5.50;;;13.40;99.90;;;;;;5059360;28;20023;-93
2024/03/20 00:35:28;;;;;;;15.73;5.78;;;12.40;99.90;;;;;;5079807;28;20033;-94
2024/03/20 00:37:54;;;;;;;11.50;5.18;;;12.40;99.90;;;;;;5075933;28;20033;-94
2024/03/20 00:40:22;;;;;;;12.70;6.10;;;12.50;99.90;;;;;;5065680;28;20013;-92
2024/03/20 00:42:48;;;;;;;11.57;4.80;;;13.10;99.90;;;;;;5090396;28;20241;-91
2024/03/20 00:45:28;;;;;;;12.52;5.05;;;13.70;99.90;;;;;;5082888;28;20021;-91
2024/03/20 00:47:53;;;;;;;13.30;4.93;;;12.50;99.90;;;;;;5071747;28;20043;-90
2024/03/20 00:50:28;;;;;;;8.38;5.40;;;13.10;99.90;;;;;;5054124;28;20092;-92
2024/03/20 00:52:54;;;;;;;13.23;5.20;;;13.50;99.90;;;;;;5063797;28;20028;-92
2024/03/20 00:55:26;;;;;;;11.93;5.25;;;13.70;99.90;;;;;;5065670;28;20021;-89
2024/03/20 00:57:51;;;;;;;11.90;4.40;;;13.40;99.90;;;;;;5039093;28;20028;-92
2024/03/20 01:00:50;;;;;;;12.98;5.30;;;12.90;99.90;;;;;;5054819;28;20025;-92
2024/03/20 01:03:25;;;;;;;10.90;5.10;;;12.30;99.90;;;;;;5056458;28;20063;-93
2024/03/20 01:05:52;;;;;;;14.18;5.82;;;12.40;99.90;;;;;;5056680;28;20358;-92
2024/03/20 01:08:18;;;;;;;7.72;5.10;;;13.70;99.90;;;;;;5057712;28;20456;-93
2024/03/20 01:10:55;;;;;;;11.52;5.30;;;13.10;99.90;;;;;;5066496;28;20040;-93
2024/03/20 01:13:22;;;;;;;12.85;5.50;;;13.60;99.90;;;;;;5054585;28;20025;-92
2024/03/20 01:15:51;;;;;;;11.77;5.13;;;13.50;99.90;;;;;;5059857;28;20053;-93
2024/03/20 01:18:16;;;;;;;10.68;5.55;;;13.10;99.90;;;;;;5076749;28;20040;-93
2024/03/20 01:20:43;;;;;;;6.70;5.22;;;13.50;99.90;;;;;;5071489;28;20465;-93
2024/03/20 01:23:08;;;;;;;19.52;5.00;;;12.40;99.90;;;;;;5070492;28;20047;-92
2024/03/20 01:25:46;;;;;;;14.85;4.93;;;13.00;99.90;;;;;;5062125;28;20017;-92
2024/03/20 01:28:11;;;;;;;10.32;3.83;;;12.30;99.90;;;;;;5052777;28;20060;-91
2024/03/20 01:30:37;;;;;;;9.07;4.05;;;12.50;99.90;;;;;;5057817;28;20076;-93
2024/03/20 01:33:02;;;;;;;5.80;3.83;;;13.50;99.90;;;;;;5060311;28;20037;-92
2024/03/20 01:35:43;;;;;;;14.95;5.07;;;12.40;99.90;;;;;;5057882;28;20038;-92
2024/03/20 01:38:09;;;;;;;14.23;4.97;;;12.80;99.90;;;;;;5068691;28;20033;-92
2024/03/20 01:40:46;;;;;;;10.55;5.18;;;12.40;99.90;;;;;;5057890;28;20021;-93
2024/03/20 01:43:19;;;;;;;18.10;4.90;;;13.40;99.90;;;;;;5042029;28;20029;-93
2024/03/20 01:45:46;;;;;;;12.38;5.43;;;13.30;99.90;;;;;;5072180;28;20198;-92
2024/03/20 01:48:12;;;;;;;12.93;5.90;;;12.40;99.90;;;;;;5077482;28;20056;-93
2024/03/20 01:50:49;;;;;;;9.40;4.90;;;12.50;99.90;;;;;;5076570;28;20094;-93
2024/03/20 01:53:16;;;;;;;11.23;5.57;;;13.50;99.90;;;;;;5083173;28;20055;-92
2024/03/20 01:55:57;;;;;;;13.50;5.10;;;13.30;99.90;;;;;;5100573;28;20013;-91
2024/03/20 01:58:22;;;;;;;11.13;5.43;;;12.60;99.90;;;;;;5077277;28;20033;-92
2024/03/20 02:00:48;;;;;;;10.48;5.10;;;12.30;99.90;;;;;;5076498;28;20028;-92
2024/03/20 02:03:29;;;;;;;16.13;6.38;;;13.30;99.90;;;;;;5075156;28;20166;-91
2024/03/20 02:05:54;;;;;;;;;;;12.30;99.90;;;;;;5073068;28;20029;-92
2024/03/20 02:08:20;;;;;;;10.65;5.45;;;13.00;99.90;;;;;;5070322;28;19908;-92
2024/03/20 02:10:46;;;;;;;10.57;5.30;;;12.90;99.90;;;;;;5069669;28;20087;-92
2024/03/20 02:13:11;;;;;;;7.68;5.10;;;12.20;99.90;;;;;;5056350;28;20025;-92
2024/03/20 02:15:37;;;;;;;10.45;4.97;;;12.30;99.90;;;;;;5056447;28;20017;-91
2024/03/20 02:18:04;;;;;;;10.25;5.07;;;12.10;99.90;;;;;;5055980;28;20544;-92
2024/03/20 02:20:30;;;;;;;11.07;5.35;;;12.10;99.90;;;;;;5055672;28;20052;-92
2024/03/20 02:22:55;;;;;;;15.07;5.85;;;12.80;99.90;;;;;;5055570;28;20033;-92
2024/03/20 02:25:35;;;;;;;11.05;4.85;;;12.00;99.90;;;;;;5057084;28;20029;-91
2024/03/20 02:28:01;;;;;;;18.48;5.97;;;11.90;99.90;;;;;;5075427;28;20024;-91
2024/03/20 02:30:38;;;;;;;15.48;5.60;;;12.40;99.90;;;;;;5084440;28;20027;-92
2024/03/20 02:33:04;;;;;;;9.68;5.43;;;12.10;99.90;;;;;;5086362;28;20029;-91
2024/03/20 02:35:42;;;;;;;11.85;5.03;;;11.90;99.90;;;;;;5077104;28;20046;-93
2024/03/20 02:38:08;;;;;;;12.27;5.70;;;11.60;99.90;;;;;;5075858;28;20031;-92
2024/03/20 02:40:44;;;;;;;7.93;5.45;;;13.10;99.90;;;;;;5052242;28;20025;-92
2024/03/20 02:43:10;;;;;;;9.57;5.57;;;12.40;99.90;;;;;;5035648;28;20037;-93
2024/03/20 02:45:41;;;;;;;13.88;6.13;;;12.10;99.90;;;;;;5044079;28;20044;-92
2024/03/20 02:48:16;;;;;;;8.05;5.35;;;12.20;99.90;;;;;;5039707;28;20112;-89
2024/03/20 02:50:42;;;;;;;14.70;5.72;;;12.80;99.90;;;;;;5035608;28;20030;-92
2024/03/20 02:53:08;;;;;;;19.40;6.28;;;11.90;99.90;;;;;;5049992;28;20400;-91
2024/03/20 02:55:34;;;;;;;12.07;5.90;;;11.80;99.90;;;;;;5055590;28;20025;-90
2024/03/20 02:58:01;;;;;;;12.23;6.28;;;11.80;99.90;;;;;;5054939;28;20094;-92
2024/03/20 03:00:27;;;;;;;14.25;6.18;;;12.40;99.90;;;;;;5055430;28;20100;-91
2024/03/20 03:02:54;;;;;;;12.07;6.50;;;11.70;99.90;;;;;;5054970;28;20155;-91
2024/03/20 03:05:23;;;;;;;12.65;6.53;;;12.10;99.90;;;;;;5055192;28;20025;-93
2024/03/20 03:07:49;;;;;;;15.13;6.90;;;12.80;99.90;;;;;;5055403;28;20053;-93
2024/03/20 03:10:15;;;;;;;10.77;6.57;;;12.10;99.90;;;;;;5054353;28;20028;-92
2024/03/20 03:12:45;;;;;;;11.98;7.03;;;12.10;99.90;;;;;;5059652;28;20045;-92
2024/03/20 03:15:10;;;;;;;15.35;7.55;;;11.80;99.90;;;;;;5075787;28;20072;-93
2024/03/20 03:17:37;;;;;;;17.73;7.25;;;11.80;99.90;;;;;;5062235;28;20079;-92
2024/03/20 03:20:06;;;;;;;13.65;7.78;;;12.20;99.90;;;;;;5055090;28;20031;-92
2024/03/20 03:22:33;;;;;;;16.27;7.57;;;11.70;99.90;;;;;;5066706;28;20049;-91
2024/03/20 03:24:58;;;;;;;15.05;7.15;;;11.60;99.90;;;;;;5068781;28;20836;-91
2024/03/20 03:27:24;;;;;;;14.70;8.10;;;12.80;99.90;;;;;;5058671;28;20036;-92
2024/03/20 03:29:49;;;;;;;12.18;6.65;;;11.60;99.90;;;;;;5055215;28;20029;-91
2024/03/20 03:32:15;;;;;;;18.35;8.35;;;12.30;99.90;;;;;;5054508;28;20025;-90
2024/03/20 03:34:40;;;;;;;18.67;7.97;;;12.80;99.90;;;;;;5055420;28;20037;-91
2024/03/20 03:37:09;;;;;;;14.48;9.00;;;11.60;99.90;;;;;;5054657;28;20021;-91
2024/03/20 03:39:34;;;;;;;18.98;7.97;;;11.70;99.90;;;;;;5054262;28;20029;-90
2024/03/20 03:42:00;;;;;;;12.45;8.40;;;11.70;99.90;;;;;;5054335;28;20021;-92
2024/03/20 03:44:25;;;;;;;20.77;7.95;;;11.70;99.90;;;;;;5054302;28;20624;-92
2024/03/20 03:46:51;;;;;;;16.38;8.40;;;11.70;99.90;;;;;;5054356;28;20045;-91
2024/03/20 03:49:17;;;;;;;15.10;8.43;;;11.80;99.90;;;;;;5065377;28;20052;-91
2024/03/20 03:51:43;;;;;;;16.92;8.02;;;11.60;99.90;;;;;;5054419;28;20052;-91
2024/03/20 03:54:08;;;;;;;13.90;8.73;;;12.30;99.90;;;;;;5055303;28;20056;-91
2024/03/20 03:56:34;;;;;;;16.55;8.50;;;11.60;99.90;;;;;;5048222;28;20030;-90
2024/03/20 03:58:59;;;;;;;13.85;8.57;;;11.60;99.90;;;;;;5054128;28;20452;-92
2024/03/20 04:01:25;;;;;;;19.15;9.02;;;11.60;99.90;;;;;;5071208;28;20063;-90
2024/03/20 04:03:51;;;;;;;17.17;8.48;;;11.50;99.90;;;;;;5075807;28;20037;-90
2024/03/20 04:06:16;;;;;;;19.77;8.63;;;11.50;99.90;;;;;;5073639;28;20048;-91
2024/03/20 04:08:42;;;;;;;20.23;8.75;;;11.80;99.90;;;;;;5073181;28;20043;-91
2024/03/20 04:11:08;;;;;;;16.98;8.13;;;12.10;99.90;;;;;;5063356;28;20032;-89
2024/03/20 04:13:33;;;;;;;16.05;8.95;;;11.70;99.90;;;;;;5055603;28;20062;-91
2024/03/20 04:15:59;;;;;;;13.43;8.50;;;12.00;99.90;;;;;;5054169;28;20028;-90
2024/03/20 04:18:24;;;;;;;12.55;8.00;;;12.00;99.90;;;;;;5055050;28;20036;-91
2024/03/20 04:20:50;;;;;;;18.45;8.90;;;11.90;99.90;;;;;;5069245;28;20431;-90
2024/03/20 04:23:16;;;;;;;16.52;8.75;;;12.50;99.90;;;;;;5055098;28;20068;-90
2024/03/20 04:25:41;;;;;;;11.93;7.88;;;11.70;99.90;;;;;;5053959;28;20071;-90
2024/03/20 04:28:07;;;;;;;15.05;9.40;;;11.40;99.90;;;;;;5053908;28;20055;-90
2024/03/20 04:30:33;;;;;;;19.42;9.32;;;11.30;99.90;;;;;;5054041;28;20048;-93
2024/03/20 04:32:59;;;;;;;21.95;9.95;;;11.30;99.90;;;;;;5063756;28;20021;-92
2024/03/20 04:35:24;;;;;;;15.15;8.43;;;11.40;99.90;;;;;;5077807;28;20031;-92
2024/03/20 04:37:50;;;;;;;31.27;9.40;;;11.40;99.90;;;;;;5056594;28;20128;-92
2024/03/20 04:40:16;;;;;;;17.10;9.43;;;11.40;99.90;;;;;;5054341;28;20104;-91
2024/03/20 04:42:42;;;;;;;10.90;8.13;;;11.40;99.90;;;;;;5042159;28;20628;-92
2024/03/20 04:45:11;;;;;;;17.33;9.20;;;11.40;99.90;;;;;;5042892;28;20032;-91
2024/03/20 04:47:36;;;;;;;14.88;9.50;;;11.40;99.90;;;;;;5054385;28;20036;-91
2024/03/20 04:50:02;;;;;;;15.55;9.20;;;12.50;99.90;;;;;;5061649;28;20025;-90
2024/03/20 04:52:28;;;;;;;21.75;9.45;;;11.40;99.90;;;;;;5058315;28;20484;-91
2024/03/20 04:54:55;;;;;;;19.92;10.25;;;12.40;99.90;;;;;;5053727;28;20033;-91
2024/03/20 04:57:21;;;;;;;19.27;9.57;;;11.80;99.90;;;;;;5053410;28;20526;-92
2024/03/20 04:59:47;;;;;;;17.02;9.60;;;11.70;99.90;;;;;;5053548;28;20028;-92
2024/03/20 05:02:12;;;;;;;16.75;9.52;;;11.40;99.90;;;;;;5052679;28;20049;-92
2024/03/20 05:04:38;;;;;;;18.58;9.65;;;11.80;99.90;;;;;;5053641;28;20495;-92
2024/03/20 05:07:04;;;;;;;23.13;9.77;;;11.70;99.90;;;;;;5053083;28;20025;-92
2024/03/20 05:09:29;;;;;;;16.67;9.93;;;11.40;99.90;;;;;;5052676;28;20029;-93
2024/03/20 05:11:56;;;;;;;14.70;9.23;;;11.30;99.90;;;;;;5052928;28;20033;-91
2024/03/20 05:14:36;;;;;;;15.05;9.40;;;11.40;99.90;;;;;;5072956;28;20017;-93
2024/03/20 05:17:01;;;;;;;15.07;9.25;;;12.40;99.90;;;;;;5058694;28;20460;-91
2024/03/20 05:19:32;;;;;;;11.35;8.45;;;12.40;99.90;;;;;;5053792;28;20043;-92
2024/03/20 05:21:58;;;;;;;12.65;8.18;;;12.00;99.90;;;;;;5053195;28;20021;-91
2024/03/20 05:24:23;;;;;;;19.15;9.52;;;11.90;99.90;;;;;;5052088;28;20078;-93
2024/03/20 05:26:52;;;;;;;14.73;9.02;;;11.30;99.90;;;;;;5052811;28;20029;-91
2024/03/20 05:32:03;;;;;;;15.77;9.25;;;11.30;99.90;;;;;;5052941;28;20067;-92
2024/03/20 05:34:29;;;;;;;16.02;9.02;;;11.30;99.90;;;;;;5053178;28;20095;-91
2024/03/20 05:37:25;;;;;;;19.23;8.98;;;11.80;99.90;;;;;;5052788;28;20060;-91
2024/03/20 05:40:15;;;;;;;16.08;9.43;;;11.30;99.90;;;;;;5052712;28;20025;-91
2024/03/20 05:42:40;;;;;;;14.13;8.70;;;11.20;99.90;;;;;;5052915;28;20029;-93
2024/03/20 05:45:27;;;;;;;14.45;8.88;;;12.20;99.90;;;;;;5052628;28;20032;-91
2024/03/20 05:47:52;;;;;;;15.00;9.23;;;12.40;99.90;;;;;;5053442;28;20021;-93
2024/03/20 05:50:18;;;;;;;19.15;9.40;;;11.10;99.90;;;;;;5043422;28;20036;-93
2024/03/20 05:53:03;;;;;;;14.40;9.43;;;11.10;99.90;;;;;;5044955;28;20089;-92
2024/03/20 05:55:28;;;;;;;16.25;9.18;;;11.10;99.90;;;;;;5069862;28;20049;-92
2024/03/20 05:58:12;;;;;;;21.92;8.45;;;12.10;99.90;;;;;;5057153;28;20048;-91
2024/03/20 06:00:37;;;;;;;18.88;9.07;;;11.20;99.90;;;;;;5056635;28;20048;-91
2024/03/20 06:03:04;;;;;;;19.17;9.75;;;11.30;99.90;;;;;;5058871;28;20457;-95
2024/03/20 06:05:40;;;;;;;27.92;9.88;;;11.10;99.90;;;;;;5058448;28;20433;-93
2024/03/20 06:08:09;;;;;;;20.40;8.40;;;11.10;99.90;;;;;;5056437;28;20026;-93
2024/03/20 06:10:35;;;;;;;19.00;9.27;;;12.20;99.90;;;;;;5047972;28;20056;-94
2024/03/20 06:13:09;;;;;;;13.10;8.75;;;11.00;99.90;;;;;;5056239;28;20029;-95
2024/03/20 06:15:38;;;;;;;18.75;8.45;;;12.00;99.90;;;;;;5040584;28;20028;-94
2024/03/20 06:18:05;;;;;;;16.25;9.95;;;12.00;99.90;;;;;;5046265;28;20021;-94
2024/03/20 06:20:30;;;;;;;19.27;9.90;;;11.00;99.90;;;;;;5038433;28;20034;-93
2024/03/20 06:22:56;;;;;;;18.45;9.73;;;11.30;99.90;;;;;;5018182;28;20850;-94
2024/03/20 06:25:30;;;;;;;20.83;10.57;;;11.00;99.90;;;;;;5040669;28;20026;-92
2024/03/20 06:27:55;;;;;;;16.60;9.77;;;11.20;99.90;;;;;;5015877;28;20037;-94
2024/03/20 06:30:23;;;;;;;19.20;10.10;;;11.10;99.90;;;;;;5019348;28;20018;-92
2024/03/20 06:32:52;;;;;;;20.73;10.80;;;11.70;99.90;;;;;;5033502;28;20045;-93
2024/03/20 06:35:17;;;;;;;19.15;10.75;;;11.20;99.90;;;;;;5026390;28;20113;-93
2024/03/20 06:37:43;;;;;;;20.80;10.30;;;11.20;99.90;;;;;;5023152;28;20117;-94
2024/03/20 06:40:12;;;;;;;26.63;11.18;;;11.80;99.90;;;;;;5055186;28;20037;-93
2024/03/20 06:42:38;;;;;;;20.50;9.90;;;11.20;99.90;;;;;;5054271;28;20541;-93
2024/03/20 06:45:08;;;;;;;25.95;10.73;;;11.60;99.90;;;;;;5056000;28;20024;-93
2024/03/20 06:47:34;;;;;;;29.52;9.88;;;11.10;99.90;;;;;;5074928;28;20044;-93
2024/03/20 06:49:59;;;;;;;17.33;10.38;;;12.10;99.90;;;;;;5074854;28;20360;-92
2024/03/20 06:52:26;;;;;;;19.45;10.43;;;11.30;99.90;;;;;;5055747;28;20169;-93
2024/03/20 06:54:52;;;;;;;19.40;9.40;;;11.40;99.90;;;;;;5068919;28;20033;-93
2024/03/20 06:57:18;;;;;;;25.15;10.20;;;11.30;99.90;;;;;;5066808;28;20488;-92
2024/03/20 06:59:45;;;;;;;18.98;10.60;;;11.40;99.90;;;;;;5059049;28;20059;-91
2024/03/20 07:02:11;;;;;;;19.23;10.23;;;11.40;99.90;;;;;;5067230;28;20047;-91
2024/03/20 07:04:37;;;;;;;22.33;10.13;;;11.50;99.90;;;;;;5068265;28;20025;-92
2024/03/20 07:07:03;;;;;;;17.67;9.88;;;11.50;99.90;;;;;;5072125;28;20017;-92
2024/03/20 07:09:33;;;;;;;25.02;10.65;;;11.50;99.90;;;;;;5063582;28;20025;-92
2024/03/20 07:12:01;;;;;;;14.02;10.68;;;11.60;99.90;;;;;;5068060;28;20041;-91
2024/03/20 07:14:29;;;;;;;22.35;10.63;;;11.60;99.90;;;;;;5078805;28;20025;-92
2024/03/20 07:16:56;;;;;;;15.27;10.07;;;11.60;99.90;;;;;;5062652;28;20488;-92
2024/03/20 07:19:22;;;;;;;16.63;9.60;;;11.80;99.90;;;;;;5059110;28;20025;-93
2024/03/20 07:21:48;;;;;;;15.77;9.85;;;11.70;99.90;;;;;;5057005;28;20039;-92
2024/03/20 07:24:15;;;;;;;16.13;9.18;;;11.70;99.90;;;;;;5054944;28;20128;-93
2024/03/20 07:26:40;;;;;;;19.20;8.93;;;11.70;99.90;;;;;;5054491;28;20476;-93
2024/03/20 07:29:07;;;;;;;24.58;9.27;;;11.80;99.90;;;;;;5055150;28;20031;-93
2024/03/20 07:31:34;;;;;;;19.60;9.00;;;11.80;99.90;;;;;;5054993;28;20021;-93
2024/03/20 07:34:00;;;;;;;17.25;8.57;;;11.80;99.90;;;;;;5054115;28;20029;-95
2024/03/20 07:36:27;;;;;;;13.65;8.43;;;11.90;99.90;;;;;;5056543;28;20074;-95
2024/03/20 07:38:53;;;;;;;16.38;7.50;;;12.90;99.90;;;;;;5054114;28;20056;-94
2024/03/20 07:41:19;;;;;;;17.52;9.52;;;12.60;99.90;;;;;;5051386;28;20025;-93
2024/03/20 07:43:48;;;;;;;18.10;8.15;;;13.10;99.90;;;;;;5046682;28;20075;-94
2024/03/20 07:46:14;;;;;;;17.98;7.82;;;12.20;99.90;;;;;;5050100;28;20188;-94
2024/03/20 07:48:44;;;;;;;17.23;7.22;;;12.00;99.90;;;;;;5041579;28;20115;-92
2024/03/20 07:51:10;;;;;;;18.33;7.13;;;13.30;99.90;;;;;;5046590;28;20507;-92
2024/03/20 07:53:35;;;;;;;13.00;6.68;;;13.30;99.90;;;;;;5054515;28;20024;-94
2024/03/20 07:56:14;;;;;;;15.00;7.35;;;12.10;99.90;;;;;;5046487;28;20522;-94
2024/03/20 07:58:45;;;;;;;13.07;7.63;;;13.10;99.90;;;;;;5090437;23;20491;-92
2024/03/20 08:01:38;;;;;;;12.35;7.70;;;13.20;99.90;;;;;;5089113;28;20438;-93
2024/03/20 08:04:04;;;;;;;10.68;6.00;;;12.20;99.90;;;;;;5084457;28;20043;-94
2024/03/20 08:06:54;;;;;;;13.73;6.55;;;12.30;99.90;;;;;;5083879;28;20028;-95
2024/03/20 08:09:35;;;;;;;25.20;7.70;;;12.30;99.90;;;;;;5086006;28;20058;-93
2024/03/20 08:12:16;;;;;;;16.98;7.95;;;12.30;99.90;;;;;;5099575;28;20266;-96
2024/03/20 08:15:03;;;;;;;14.55;8.82;;;12.40;99.90;;;;;;5099593;28;20028;-94
2024/03/20 08:17:48;;;;;;;20.52;9.30;;;12.40;99.90;;;;;;5114546;27;20012;-92
2024/03/20 08:22:50;;;;;;;23.00;10.02;;;12.50;99.90;;;;;;5719476;22;20048;-94
2024/03/20 08:25:16;;;;;;;23.15;9.50;;;12.50;99.90;;;;;;5743243;22;20048;-95
2024/03/20 08:32:53;;;;;;;13.15;8.70;;;12.60;99.90;;;;;;5627610;22;20044;-94
2024/03/20 08:36:08;;;;;;;17.88;9.15;;;13.50;99.90;;;;;;5117708;27;20035;-94
2024/03/20 08:38:50;;;;;;;14.43;7.63;;;12.70;99.90;;;;;;5095641;28;20103;-93
2024/03/20 08:41:16;;;;;;;9.75;6.15;;;12.90;99.90;;;;;;5076882;28;20028;-93
2024/03/20 08:43:42;;;;;;;17.70;7.28;;;12.90;99.90;;;;;;5088815;28;20069;-95
2024/03/20 08:46:10;;;;;;;15.95;6.20;;;12.80;99.90;;;;;;5084037;28;20050;-89
2024/03/20 08:48:36;;;;;;;14.30;6.13;;;12.90;99.90;;;;;;5099660;28;20491;-94
2024/03/20 08:51:03;;;;;;;16.33;7.00;;;13.80;99.90;;;;;;5111060;28;20020;-87
2024/03/20 08:53:31;;;;;;;15.52;6.78;;;13.00;99.90;;;;;;5091691;28;20545;-89
2024/03/20 08:55:57;;;;;;;18.40;7.72;;;14.20;99.90;;;;;;5093569;28;20093;-92
2024/03/20 08:58:42;;;;;;;19.80;6.68;;;14.20;99.90;;;;;;5101803;28;20042;-92
2024/03/20 09:01:14;;;;;;;11.85;6.35;;;13.10;99.90;;;;;;5100926;28;20040;-95
2024/03/20 09:03:40;;;;;;;15.05;7.15;;;13.60;99.90;;;;;;5107613;27;20079;-95
2024/03/20 09:06:24;;;;;;;19.02;6.57;;;13.10;99.90;;;;;;5099121;28;20040;-94
2024/03/20 09:24:27;;;;;;;15.25;7.28;;;13.40;99.90;;;;;;5073397;28;20071;-93
2024/03/20 09:26:55;;;;;;;14.68;7.70;;;13.30;99.90;;;;;;5075482;28;20024;-90
2024/03/20 09:29:35;;;;;;;11.98;7.60;;;13.00;99.90;;;;;;5078659;28;20032;-90
2024/03/20 09:32:19;;;;;;;19.98;7.50;;;14.20;99.90;;;;;;5078257;28;20025;-95
2024/03/20 09:39:59;;;;;;;15.85;8.02;;;13.50;99.90;;;;;;5330979;22;20075;-94
2024/03/20 09:42:25;;;;;;;15.00;8.13;;;14.20;99.90;;;;;;5039546;28;20033;-95
2024/03/20 09:45:01;;;;;;;14.02;8.57;;;13.80;99.90;;;;;;5153359;22;20056;-92
2024/03/20 09:47:42;;;;;;;18.25;8.02;;;14.70;99.90;;;;;;5289163;22;20056;-85
2024/03/20 09:50:15;;;;;;;14.73;8.70;;;13.60;99.90;;;;;;5068811;28;20495;-87
2024/03/20 09:52:41;;;;;;;14.38;8.70;;;13.60;99.90;;;;;;5084447;28;20093;-93
2024/03/20 09:55:14;;;;;;;21.92;8.48;;;13.70;99.90;;;;;;5202641;22;20032;-94
2024/03/20 09:57:57;;;;;;;16.30;8.82;;;14.30;99.90;;;;;;5103371;28;20028;-92
2024/03/20 10:00:23;;;;;;;14.95;9.07;;;14.50;99.90;;;;;;5100488;28;20032;-92
2024/03/20 10:03:04;;;;;;;12.90;7.45;;;13.70;99.90;;;;;;5099846;28;20057;-93
2024/03/20 10:05:39;;;;;;;17.83;8.73;;;13.80;99.90;;;;;;5106877;28;20020;-94
2024/03/20 10:08:09;;;;;;;16.38;9.50;;;14.50;99.90;;;;;;5119306;22;20045;-94
2024/03/20 10:10:34;;;;;;;17.02;9.20;;;13.80;99.90;;;;;;5091512;28;20039;-95
2024/03/20 10:13:00;;;;;;;21.17;11.00;;;13.80;99.90;;;;;;5084263;28;20056;-94
2024/03/20 10:15:26;;;;;;;18.27;12.43;;;14.00;99.90;;;;;;5091902;28;20076;-93
2024/03/20 10:18:05;;;;;;;23.52;14.18;;;13.90;99.90;;;;;;5251251;22;20064;-89
2024/03/20 10:20:31;;;;;;;20.27;14.45;;;13.90;99.90;;;;;;5113260;28;20127;-94
2024/03/20 10:22:57;;;;;;;22.33;13.43;;;15.10;99.90;;;;;;5112597;28;20021;-93
2024/03/20 10:25:26;;;;;;;23.27;12.38;;;15.20;99.90;;;;;;5106358;28;20024;-94
2024/03/20 10:30:22;;;;;;;22.15;12.20;;;14.00;99.90;;;;;;5094014;28;20040;-91
2024/03/20 10:32:52;;;;;;;18.08;12.35;;;14.60;99.90;;;;;;5069728;28;20035;-93
2024/03/20 10:35:32;;;;;;;22.27;13.50;;;15.10;99.90;;;;;;5073978;28;20059;-93
2024/03/20 10:37:59;;;;;;;21.83;13.30;;;15.10;99.90;;;;;;5080980;28;20535;-86
2024/03/20 10:40:27;;;;;;;21.23;13.25;;;15.10;99.90;;;;;;5067658;28;20400;-89
2024/03/20 10:42:53;;;;;;;23.17;14.07;;;14.10;99.90;;;;;;5075040;28;20036;-94
2024/03/20 10:45:19;;;;;;;19.67;14.18;;;13.90;99.90;;;;;;5075428;28;20038;-92
2024/03/20 11:10:55;;;;;;;23.15;14.88;;;14.30;99.90;;;;;;5078181;28;20048;-96
2024/03/20 11:29:11;;;;;;;27.10;13.20;;;14.50;99.90;;;;;;5092938;28;20041;-94
2024/03/20 11:31:38;;;;;;;21.45;15.27;;;14.50;99.90;;;;;;5098327;28;20058;-94
2024/03/20 11:34:05;;;;;;;16.20;13.70;;;15.70;99.90;;;;;;5101550;28;20024;-95
2024/03/20 11:36:31;;;;;;;21.05;13.45;;;15.80;99.90;;;;;;5095290;28;20023;-94
2024/03/20 11:38:57;;;;;;;25.52;13.88;;;15.50;99.90;;;;;;5075712;28;20472;-94
2024/03/20 11:41:23;;;;;;;19.48;12.52;;;15.70;99.90;;;;;;5076447;28;20016;-95
2024/03/20 11:43:49;;;;;;;19.17;13.43;;;14.60;99.90;;;;;;5075972;28;20632;-95
2024/03/20 11:46:16;;;;;;;24.02;13.07;;;15.70;99.90;;;;;;5075624;28;20043;-95
2024/03/20 11:48:49;;;;;;;24.13;13.40;;;14.70;99.90;;;;;;5080300;28;20035;-94
2024/03/20 11:51:22;;;;;;;21.88;13.43;;;16.10;99.90;;;;;;5076842;28;20025;-94
2024/03/20 11:53:49;;;;;;;20.90;13.55;;;16.00;99.90;;;;;;5075520;28;20027;-95
2024/03/20 11:56:15;;;;;;;20.73;13.40;;;15.60;99.90;;;;;;5077010;28;20028;-94
2024/03/20 11:58:40;;;;;;;20.83;12.55;;;15.00;99.90;;;;;;5076551;28;20025;-92
2024/03/20 12:01:11;;;;;;;16.25;11.85;;;14.80;99.90;;;;;;5093550;28;20375;-90
2024/03/20 12:03:37;;;;;;;;;;;15.00;99.90;;;;;;5075162;28;20040;-94
2024/03/20 12:06:09;;;;;;;18.27;11.88;;;15.10;99.90;;;;;;5079730;28;20383;-94
2024/03/20 12:08:35;;;;;;;15.73;11.18;;;15.30;99.90;;;;;;5076311;28;20039;-93
2024/03/20 12:11:28;;;;;;;24.08;13.32;;;15.30;99.90;;;;;;5074729;28;20050;-92
2024/03/20 12:13:54;;;;;;;22.95;11.32;;;15.30;99.90;;;;;;5092092;28;20024;-92
2024/03/20 12:16:23;;;;;;;19.58;13.38;;;15.40;99.90;;;;;;5096784;28;20480;-92
2024/03/20 12:18:51;;;;;;;20.30;12.57;;;15.50;99.90;;;;;;5079417;28;20078;-94
2024/03/20 12:21:19;;;;;;;18.00;12.30;;;15.80;99.90;;;;;;5081142;28;20036;-95
2024/03/20 12:23:49;;;;;;;21.08;12.20;;;15.60;99.90;;;;;;5088048;28;20036;-95
2024/03/20 12:26:29;;;;;;;16.77;12.45;;;15.70;99.90;;;;;;5116405;27;20388;-93
2024/03/20 12:28:55;;;;;;;15.55;11.93;;;16.00;99.90;;;;;;5096698;28;20028;-95
2024/03/20 12:31:23;;;;;;;16.50;11.35;;;15.80;99.90;;;;;;5095301;28;20032;-94
2024/03/20 12:33:53;;;;;;;19.10;12.40;;;15.80;99.90;;;;;;5102175;28;20048;-93
2024/03/20 12:36:20;;;;;;;;;;;15.80;99.90;;;;;;5096789;28;20021;-92
2024/03/20 12:38:48;;;;;;;16.23;11.43;;;16.00;99.90;;;;;;5081482;28;19998;-92
2024/03/20 12:41:15;;;;;;;13.68;10.00;;;16.30;99.90;;;;;;5087311;28;20088;-91
2024/03/20 12:43:41;;;;;;;14.40;10.32;;;17.00;99.90;;;;;;5089371;28;20115;-93
2024/03/20 12:46:06;;;;;;;19.80;11.70;;;16.30;99.90;;;;;;5091513;28;20032;-92
2024/03/20 12:48:33;;;;;;;14.25;11.18;;;15.90;99.90;;;;;;5091148;28;20021;-92
2024/03/20 12:50:59;;;;;;;17.92;11.90;;;15.70;99.90;;;;;;5091895;28;20032;-93
2024/03/20 12:53:25;;;;;;;12.85;11.32;;;16.60;99.90;;;;;;5092140;28;20027;-91
2024/03/20 12:55:52;;;;;;;19.48;12.48;;;16.60;99.90;;;;;;5092106;28;20032;-92
2024/03/20 12:58:17;;;;;;;16.15;10.38;;;15.90;99.90;;;;;;5092375;28;20058;-92
2024/03/20 13:00:44;;;;;;;15.38;11.60;;;16.00;99.90;;;;;;5091251;28;20072;-91
2024/03/20 13:03:15;;;;;;;16.52;11.98;;;15.90;99.90;;;;;;5079082;28;20147;-91
2024/03/20 13:05:42;;;;;;;14.68;12.20;;;15.90;99.90;;;;;;5093634;28;20100;-91
2024/03/20 13:08:13;;;;;;;17.80;11.13;;;16.30;99.90;;;;;;5106140;28;20020;-91
2024/03/20 13:10:40;;;;;;;20.25;12.38;;;16.00;99.90;;;;;;5095693;28;20044;-92
2024/03/20 13:13:23;;;;;;;21.23;14.07;;;16.00;99.90;;;;;;5076707;28;20366;-87
2024/03/20 13:15:50;;;;;;;14.82;12.05;;;16.10;99.90;;;;;;5070019;28;20104;-92
2024/03/20 13:18:32;;;;;;;19.25;13.05;;;16.30;99.90;;;;;;5072589;28;20033;-89
2024/03/20 13:21:01;;;;;;;20.20;14.18;;;16.10;99.90;;;;;;5072883;28;20024;-91
2024/03/20 13:23:28;;;;;;;31.15;15.05;;;16.20;99.90;;;;;;5071206;28;20100;-91
2024/03/20 13:25:53;;;;;;;19.80;14.70;;;16.30;99.90;;;;;;5080104;28;20091;-90
2024/03/20 13:28:19;;;;;;;20.90;14.23;;;16.30;99.90;;;;;;5088417;28;20493;-89
2024/03/20 13:30:49;;;;;;;21.88;14.80;;;16.60;99.90;;;;;;5088419;28;20024;-88
2024/03/20 13:33:15;;;;;;;20.00;14.15;;;16.40;99.90;;;;;;5088473;28;20027;-88
2024/03/20 13:35:42;;;;;;;20.90;13.35;;;16.40;99.90;;;;;;5087500;28;20372;-89
2024/03/20 13:38:14;;;;;;;20.83;13.88;;;16.60;99.90;;;;;;5077456;28;20024;-90
2024/03/20 13:40:43;;;;;;;18.83;14.30;;;16.40;99.90;;;;;;5075309;28;20412;-89
2024/03/20 13:45:59;;;;;;;20.38;14.25;;;16.60;99.90;;;;;;5076551;28;20080;-89
2024/03/20 13:48:25;;;;;;;17.70;15.10;;;16.80;99.90;;;;;;5083063;28;20020;-88
2024/03/20 13:50:50;;;;;;;22.55;14.77;;;16.80;99.90;;;;;;5095253;28;20020;-89
2024/03/20 13:53:17;;;;;;;23.60;14.82;;;16.80;99.90;;;;;;5094863;28;20028;-87
2024/03/20 13:55:42;;;;;;;19.27;13.52;;;16.80;99.90;;;;;;5075089;28;20024;-89
2024/03/20 13:58:08;;;;;;;20.23;13.88;;;16.80;99.90;;;;;;5074770;28;20027;-89
2024/03/20 14:00:34;;;;;;;19.13;14.25;;;16.80;99.90;;;;;;5074958;28;20029;-89